This is the latest recevied weather packets stored in our database for station/object DK2OO-6. If no packets are shown the sender has not sent any weather packets the latest 10 day(s).
| Time | Temp. | Humidity | Pressure | Rain* | Wind** | Luminosity | Snow |
|---|---|---|---|---|---|---|---|
| 1777868682 | 9.44° C | 66% | 1009 hPa | 0 mm | - | - | - |
| 1777868080 | 9.44° C | 66% | 1009 hPa | 0 mm | - | - | - |
| 1777863857 | 9.44° C | 65% | 1009 hPa | 0 mm | - | - | - |
| 1777861435 | 10° C | 61% | 1009.3 hPa | 0 mm | - | - | - |
| 1777858407 | 10.56° C | 58% | 1009.2 hPa | 0 mm | - | - | - |
| 1777848142 | 15° C | 46% | 1008.6 hPa | 0 mm | - | - | - |
| 1777846332 | 15.56° C | 46% | 1008.7 hPa | 0 mm | - | - | - |
| 1777817325 | 25.56° C | 35% | 1006.9 hPa | 0 mm | - | - | - |
| 1777800441 | 22.78° C | - | - | 0 mm | - | - | - |
| 1777799239 | 21.67° C | - | - | 0 mm | - | - | - |
| 1777794401 | 17.22° C | - | - | 213.36 mm | - | - | - |
| 1777792601 | 15° C | - | - | 132.08 mm | - | - | - |
| 1777787774 | 7.78° C | 73% | 1009.7 hPa | 0 mm | - | - | - |
| 1777786566 | 6.67° C | 73% | 1010 hPa | 0 mm | - | - | - |
| 1777779916 | 5.56° C | 70% | 1009.7 hPa | 0 mm | - | - | - |
| 1777778113 | 6.67° C | 69% | 1009.8 hPa | 0 mm | - | - | - |
| 1777773885 | 7.22° C | 68% | 1010 hPa | 0 mm | - | - | - |
| 1777773279 | 7.22° C | 68% | 1010 hPa | 0 mm | - | - | - |
| 1777763596 | 8.89° C | 62% | 1010.6 hPa | 0 mm | - | - | - |
| 1777750294 | 14.44° C | 47% | 1011.4 hPa | 0 mm | - | - | - |
| 1777744253 | 21.11° C | 33% | 1011 hPa | 0 mm | - | - | - |
| 1777738802 | 23.89° C | 30% | 1011.6 hPa | 0 mm | - | - | - |
| 1777724909 | 24.44° C | 36% | 1014.2 hPa | 0 mm | - | - | - |
| 1777721885 | 23.33° C | 39% | 1014.9 hPa | 161.54 mm | - | - | - |
| 1777720678 | 22.78° C | 39% | 1015.1 hPa | 161.54 mm | - | - | - |
* Rain latest hour (hover to see other rain measurements)
** Current wind speed in m/s (hover to see current wind gust speed)